Nearby METAR Reports

 

YAMB - Amberley, Australia
Distance from station: WNW 24km
Updated: 22/09/2017 07:00
Few Clouds
Few Clouds
 Wind from ENE
Wind: ENE 2 km/h
Temperature: 17°C
Dew Point: 15°C
Humidity: 88%
Barometer: 1018 hPa
Clouds: Few Clouds
Visibility: 10 km
Cloud details: Few Clouds 1372 m
2017/09/21 21:00 YAMB 212100Z 07001KT 9999 FEW045 17/15 Q1018
YBBN - Brisbane Intl Ar, Australia
Distance from station: NNE 44km
Updated: 22/09/2017 07:00
Few Clouds
Few Clouds
 Wind from NNW
Wind: NNW 17 km/h
Temperature: 21°C
Dew Point: 17°C
Humidity: 78%
Barometer: 1019 hPa
Clouds: Few Clouds
Visibility: 10 km
Cloud details: Few Clouds 610 m
2017/09/21 21:00 YBBN 212100Z 34009KT 9999 FEW020 21/17 Q1019
YBCG - Coolangatta Aws, Australia
Distance from station: SE 74km
Updated: 22/09/2017 07:00
Clear
Clear
 Wind from NNW
Wind: NNW 17 km/h
Temperature: 21°C
Dew Point: 18°C
Humidity: 83%
Barometer: 1018 hPa
Clouds: Clear
Visibility: 10 km
2017/09/21 21:00 YBCG 212100Z AUTO 34009KT 9999 // NCD 21/18 Q1018